Terminal Aerodrome Forecast
Issued by NWS

Current Version | Previous Version | Text Only | Print | Product List | Glossary On
Versions: 1 2 3 4 5 6 7 8 9 10 11 12 13 14 15 16 17 18 19 20 21 22 23 24 25 26 27 28 29 30 31
000 FTUS41 KBOX 051120 TAFHYA TAF KHYA 051120Z 0512/0612 00000KT P6SM SKC FM051900 08007KT P6SM SKC FM052300 15004KT P6SM SKC FM060400 00000KT P6SM SKC=

USA.gov is the U.S. government's official web portal to all federal, state and local government web resources and services.